sensor_id;sensor_type;location;lat;lon;timestamp;temperature;humidity
20171;DHT22;10245;51.344;6.620;2023-12-20T00:00:26;7.80;94.20
20171;DHT22;10245;51.344;6.620;2023-12-20T00:02:49;7.80;94.20
20171;DHT22;10245;51.344;6.620;2023-12-20T00:05:12;7.80;94.10
20171;DHT22;10245;51.344;6.620;2023-12-20T00:07:37;7.70;93.80
20171;DHT22;10245;51.344;6.620;2023-12-20T00:10:00;7.70;93.90
20171;DHT22;10245;51.344;6.620;2023-12-20T00:12:26;7.60;93.90
20171;DHT22;10245;51.344;6.620;2023-12-20T00:14:49;7.60;94.00
20171;DHT22;10245;51.344;6.620;2023-12-20T00:17:13;7.50;93.90
20171;DHT22;10245;51.344;6.620;2023-12-20T00:19:36;7.60;94.20
20171;DHT22;10245;51.344;6.620;2023-12-20T00:21:59;7.50;94.00
20171;DHT22;10245;51.344;6.620;2023-12-20T00:24:23;7.50;93.90
20171;DHT22;10245;51.344;6.620;2023-12-20T00:26:47;7.60;94.20
20171;DHT22;10245;51.344;6.620;2023-12-20T00:29:12;7.50;93.90
20171;DHT22;10245;51.344;6.620;2023-12-20T00:31:35;7.50;93.90
20171;DHT22;10245;51.344;6.620;2023-12-20T00:33:59;7.50;93.90
20171;DHT22;10245;51.344;6.620;2023-12-20T00:36:23;7.50;94.20
20171;DHT22;10245;51.344;6.620;2023-12-20T00:38:46;7.50;94.10
20171;DHT22;10245;51.344;6.620;2023-12-20T00:41:11;7.50;94.10
20171;DHT22;10245;51.344;6.620;2023-12-20T00:43:35;7.50;94.20
20171;DHT22;10245;51.344;6.620;2023-12-20T00:45:59;7.50;94.10
20171;DHT22;10245;51.344;6.620;2023-12-20T00:48:23;7.60;94.20
20171;DHT22;10245;51.344;6.620;2023-12-20T00:50:46;7.50;94.00
20171;DHT22;10245;51.344;6.620;2023-12-20T00:53:09;7.60;94.20
20171;DHT22;10245;51.344;6.620;2023-12-20T00:55:33;7.50;94.10
20171;DHT22;10245;51.344;6.620;2023-12-20T00:57:56;7.50;94.00
20171;DHT22;10245;51.344;6.620;2023-12-20T01:00:21;7.50;93.90
20171;DHT22;10245;51.344;6.620;2023-12-20T01:02:45;7.60;94.00
20171;DHT22;10245;51.344;6.620;2023-12-20T01:05:12;7.50;93.70
20171;DHT22;10245;51.344;6.620;2023-12-20T01:07:35;7.50;93.70
20171;DHT22;10245;51.344;6.620;2023-12-20T01:09:57;7.40;93.70
20171;DHT22;10245;51.344;6.620;2023-12-20T01:12:22;7.40;93.70
20171;DHT22;10245;51.344;6.620;2023-12-20T01:14:45;7.40;93.70
20171;DHT22;10245;51.344;6.620;2023-12-20T01:17:10;7.30;93.60
20171;DHT22;10245;51.344;6.620;2023-12-20T01:19:36;7.40;93.70
20171;DHT22;10245;51.344;6.620;2023-12-20T01:22:03;7.30;93.10
20171;DHT22;10245;51.344;6.620;2023-12-20T01:24:29;7.30;93.30
20171;DHT22;10245;51.344;6.620;2023-12-20T01:26:52;7.30;93.10
20171;DHT22;10245;51.344;6.620;2023-12-20T01:29:15;7.30;93.10
20171;DHT22;10245;51.344;6.620;2023-12-20T01:31:39;7.30;92.90
20171;DHT22;10245;51.344;6.620;2023-12-20T01:34:02;7.10;93.10
20171;DHT22;10245;51.344;6.620;2023-12-20T01:36:27;7.10;93.20
20171;DHT22;10245;51.344;6.620;2023-12-20T01:38:51;7.00;93.10
20171;DHT22;10245;51.344;6.620;2023-12-20T01:41:14;7.00;92.90
20171;DHT22;10245;51.344;6.620;2023-12-20T01:43:37;7.00;92.80
20171;DHT22;10245;51.344;6.620;2023-12-20T01:46:12;7.00;92.90
20171;DHT22;10245;51.344;6.620;2023-12-20T01:48:35;7.00;92.50
20171;DHT22;10245;51.344;6.620;2023-12-20T01:51:00;6.90;92.50
20171;DHT22;10245;51.344;6.620;2023-12-20T01:53:26;6.80;92.20
20171;DHT22;10245;51.344;6.620;2023-12-20T01:55:50;6.80;92.30
20171;DHT22;10245;51.344;6.620;2023-12-20T01:58:16;6.80;92.40
20171;DHT22;10245;51.344;6.620;2023-12-20T02:00:42;6.70;92.40
20171;DHT22;10245;51.344;6.620;2023-12-20T02:03:07;6.70;92.40
20171;DHT22;10245;51.344;6.620;2023-12-20T02:05:30;6.60;92.70
20171;DHT22;10245;51.344;6.620;2023-12-20T02:07:54;6.60;92.70
20171;DHT22;10245;51.344;6.620;2023-12-20T02:10:19;6.60;92.80
20171;DHT22;10245;51.344;6.620;2023-12-20T02:12:43;6.50;92.80
20171;DHT22;10245;51.344;6.620;2023-12-20T02:15:08;6.60;93.10
20171;DHT22;10245;51.344;6.620;2023-12-20T02:17:32;6.50;92.90
20171;DHT22;10245;51.344;6.620;2023-12-20T02:19:55;6.50;93.10
20171;DHT22;10245;51.344;6.620;2023-12-20T02:22:20;6.50;93.20
20171;DHT22;10245;51.344;6.620;2023-12-20T02:24:43;6.40;93.10
20171;DHT22;10245;51.344;6.620;2023-12-20T02:27:07;6.50;93.20
20171;DHT22;10245;51.344;6.620;2023-12-20T02:29:31;6.50;93.10
20171;DHT22;10245;51.344;6.620;2023-12-20T02:31:55;6.40;93.20
20171;DHT22;10245;51.344;6.620;2023-12-20T02:34:19;6.30;92.90
20171;DHT22;10245;51.344;6.620;2023-12-20T02:36:46;6.20;92.90
20171;DHT22;10245;51.344;6.620;2023-12-20T02:39:20;6.30;92.90
20171;DHT22;10245;51.344;6.620;2023-12-20T02:41:50;6.20;93.00
20171;DHT22;10245;51.344;6.620;2023-12-20T02:44:19;6.20;92.80
20171;DHT22;10245;51.344;6.620;2023-12-20T02:47:01;6.20;92.90
20171;DHT22;10245;51.344;6.620;2023-12-20T02:49:45;6.20;92.60
20171;DHT22;10245;51.344;6.620;2023-12-20T02:52:31;6.10;92.70
20171;DHT22;10245;51.344;6.620;2023-12-20T02:55:09;6.20;92.70
20171;DHT22;10245;51.344;6.620;2023-12-20T02:57:34;6.10;92.70
20171;DHT22;10245;51.344;6.620;2023-12-20T03:00:06;6.10;92.70
20171;DHT22;10245;51.344;6.620;2023-12-20T03:02:38;6.00;92.70
20171;DHT22;10245;51.344;6.620;2023-12-20T03:05:15;6.00;92.80
20171;DHT22;10245;51.344;6.620;2023-12-20T03:07:44;6.00;92.90
20171;DHT22;10245;51.344;6.620;2023-12-20T03:10:14;6.00;93.10
20171;DHT22;10245;51.344;6.620;2023-12-20T03:12:52;6.00;92.80
20171;DHT22;10245;51.344;6.620;2023-12-20T03:15:21;6.00;92.80
20171;DHT22;10245;51.344;6.620;2023-12-20T03:17:51;6.00;92.90
20171;DHT22;10245;51.344;6.620;2023-12-20T03:20:15;6.00;92.90
20171;DHT22;10245;51.344;6.620;2023-12-20T03:22:38;6.00;92.80
20171;DHT22;10245;51.344;6.620;2023-12-20T03:25:02;6.00;92.90
20171;DHT22;10245;51.344;6.620;2023-12-20T03:27:27;6.00;92.90
20171;DHT22;10245;51.344;6.620;2023-12-20T03:29:50;6.00;92.90
20171;DHT22;10245;51.344;6.620;2023-12-20T03:32:14;6.00;92.80
20171;DHT22;10245;51.344;6.620;2023-12-20T03:34:37;6.00;92.80
20171;DHT22;10245;51.344;6.620;2023-12-20T03:37:01;6.10;93.00
20171;DHT22;10245;51.344;6.620;2023-12-20T03:39:24;6.00;93.10
20171;DHT22;10245;51.344;6.620;2023-12-20T03:41:48;6.00;93.00
20171;DHT22;10245;51.344;6.620;2023-12-20T03:44:13;6.00;92.60
20171;DHT22;10245;51.344;6.620;2023-12-20T03:46:36;6.10;92.80
20171;DHT22;10245;51.344;6.620;2023-12-20T03:48:59;6.00;92.90
20171;DHT22;10245;51.344;6.620;2023-12-20T03:51:25;6.00;93.00
20171;DHT22;10245;51.344;6.620;2023-12-20T03:53:49;6.00;92.80
20171;DHT22;10245;51.344;6.620;2023-12-20T03:56:13;6.00;92.90
20171;DHT22;10245;51.344;6.620;2023-12-20T03:58:36;6.00;92.80
20171;DHT22;10245;51.344;6.620;2023-12-20T04:01:00;5.90;92.80
20171;DHT22;10245;51.344;6.620;2023-12-20T04:03:24;6.00;92.90
20171;DHT22;10245;51.344;6.620;2023-12-20T04:05:48;5.90;92.70
20171;DHT22;10245;51.344;6.620;2023-12-20T04:08:11;5.90;93.10
20171;DHT22;10245;51.344;6.620;2023-12-20T04:10:34;5.80;92.80
20171;DHT22;10245;51.344;6.620;2023-12-20T04:12:59;5.80;93.00
20171;DHT22;10245;51.344;6.620;2023-12-20T04:15:22;5.80;92.90
20171;DHT22;10245;51.344;6.620;2023-12-20T04:17:47;5.80;93.00
20171;DHT22;10245;51.344;6.620;2023-12-20T04:20:11;5.80;93.10
20171;DHT22;10245;51.344;6.620;2023-12-20T04:22:35;5.70;92.90
20171;DHT22;10245;51.344;6.620;2023-12-20T04:24:58;5.70;92.90
20171;DHT22;10245;51.344;6.620;2023-12-20T04:27:22;5.70;92.80
20171;DHT22;10245;51.344;6.620;2023-12-20T04:29:45;5.80;92.80
20171;DHT22;10245;51.344;6.620;2023-12-20T04:32:09;5.70;92.70
20171;DHT22;10245;51.344;6.620;2023-12-20T04:34:33;5.80;92.70
20171;DHT22;10245;51.344;6.620;2023-12-20T04:36:57;5.80;92.70
20171;DHT22;10245;51.344;6.620;2023-12-20T04:39:20;5.80;92.70
20171;DHT22;10245;51.344;6.620;2023-12-20T04:41:43;5.80;92.70
20171;DHT22;10245;51.344;6.620;2023-12-20T04:44:07;5.70;92.90
20171;DHT22;10245;51.344;6.620;2023-12-20T04:46:30;5.60;92.90
20171;DHT22;10245;51.344;6.620;2023-12-20T04:48:53;5.70;92.90
20171;DHT22;10245;51.344;6.620;2023-12-20T04:51:18;5.70;92.90
20171;DHT22;10245;51.344;6.620;2023-12-20T04:53:42;5.60;92.90
20171;DHT22;10245;51.344;6.620;2023-12-20T04:56:06;5.60;92.90
20171;DHT22;10245;51.344;6.620;2023-12-20T04:58:29;5.70;92.80
20171;DHT22;10245;51.344;6.620;2023-12-20T05:00:52;5.70;92.80
20171;DHT22;10245;51.344;6.620;2023-12-20T05:03:16;5.70;92.80
20171;DHT22;10245;51.344;6.620;2023-12-20T05:05:39;5.70;92.80
20171;DHT22;10245;51.344;6.620;2023-12-20T05:08:04;5.80;92.50
20171;DHT22;10245;51.344;6.620;2023-12-20T05:10:28;5.80;92.60
20171;DHT22;10245;51.344;6.620;2023-12-20T05:12:52;5.70;92.60
20171;DHT22;10245;51.344;6.620;2023-12-20T05:15:15;5.80;92.60
20171;DHT22;10245;51.344;6.620;2023-12-20T05:17:38;5.80;92.40
20171;DHT22;10245;51.344;6.620;2023-12-20T05:20:03;5.90;92.30
20171;DHT22;10245;51.344;6.620;2023-12-20T05:22:27;5.90;92.40
20171;DHT22;10245;51.344;6.620;2023-12-20T05:24:51;5.90;92.30
20171;DHT22;10245;51.344;6.620;2023-12-20T05:27:15;5.90;92.30
20171;DHT22;10245;51.344;6.620;2023-12-20T05:29:38;5.90;92.50
20171;DHT22;10245;51.344;6.620;2023-12-20T05:32:02;5.90;92.80
20171;DHT22;10245;51.344;6.620;2023-12-20T05:34:26;5.80;93.00
20171;DHT22;10245;51.344;6.620;2023-12-20T05:36:50;5.80;93.00
20171;DHT22;10245;51.344;6.620;2023-12-20T05:39:13;5.90;93.30
20171;DHT22;10245;51.344;6.620;2023-12-20T05:41:38;5.80;93.10
20171;DHT22;10245;51.344;6.620;2023-12-20T05:44:01;5.80;93.00
20171;DHT22;10245;51.344;6.620;2023-12-20T05:46:23;5.90;92.90
20171;DHT22;10245;51.344;6.620;2023-12-20T05:48:47;5.90;93.00
20171;DHT22;10245;51.344;6.620;2023-12-20T05:51:11;5.90;92.80
20171;DHT22;10245;51.344;6.620;2023-12-20T05:53:35;5.90;92.80
20171;DHT22;10245;51.344;6.620;2023-12-20T05:55:59;5.90;92.60
20171;DHT22;10245;51.344;6.620;2023-12-20T05:58:24;5.90;92.70
20171;DHT22;10245;51.344;6.620;2023-12-20T06:00:47;5.90;92.70
20171;DHT22;10245;51.344;6.620;2023-12-20T06:03:10;5.90;92.70
20171;DHT22;10245;51.344;6.620;2023-12-20T06:05:34;6.00;92.60
20171;DHT22;10245;51.344;6.620;2023-12-20T06:07:57;6.00;92.50
20171;DHT22;10245;51.344;6.620;2023-12-20T06:10:24;6.00;92.40
20171;DHT22;10245;51.344;6.620;2023-12-20T06:12:48;6.00;92.50
20171;DHT22;10245;51.344;6.620;2023-12-20T06:15:13;6.00;92.40
20171;DHT22;10245;51.344;6.620;2023-12-20T06:17:37;6.00;92.30
20171;DHT22;10245;51.344;6.620;2023-12-20T06:20:01;6.00;92.20
20171;DHT22;10245;51.344;6.620;2023-12-20T06:22:29;6.10;92.10
20171;DHT22;10245;51.344;6.620;2023-12-20T06:24:53;6.10;92.10
20171;DHT22;10245;51.344;6.620;2023-12-20T06:27:16;6.20;92.10
20171;DHT22;10245;51.344;6.620;2023-12-20T06:29:40;6.20;92.10
20171;DHT22;10245;51.344;6.620;2023-12-20T06:32:07;6.20;91.90
20171;DHT22;10245;51.344;6.620;2023-12-20T06:34:32;6.20;91.70
20171;DHT22;10245;51.344;6.620;2023-12-20T06:36:56;6.10;91.90
20171;DHT22;10245;51.344;6.620;2023-12-20T06:39:19;6.20;92.00
20171;DHT22;10245;51.344;6.620;2023-12-20T06:41:43;6.20;92.00
20171;DHT22;10245;51.344;6.620;2023-12-20T06:44:06;6.20;91.70
20171;DHT22;10245;51.344;6.620;2023-12-20T06:46:29;6.20;91.60
20171;DHT22;10245;51.344;6.620;2023-12-20T06:48:54;6.30;91.50
20171;DHT22;10245;51.344;6.620;2023-12-20T06:51:18;6.20;91.60
20171;DHT22;10245;51.344;6.620;2023-12-20T06:53:42;6.30;91.60
20171;DHT22;10245;51.344;6.620;2023-12-20T06:56:06;6.30;91.70
20171;DHT22;10245;51.344;6.620;2023-12-20T06:58:30;6.30;91.60
20171;DHT22;10245;51.344;6.620;2023-12-20T07:00:53;6.30;91.60
20171;DHT22;10245;51.344;6.620;2023-12-20T07:03:17;6.30;91.70
20171;DHT22;10245;51.344;6.620;2023-12-20T07:05:42;6.30;91.70
20171;DHT22;10245;51.344;6.620;2023-12-20T07:08:06;6.30;91.50
20171;DHT22;10245;51.344;6.620;2023-12-20T07:10:29;6.30;91.50
20171;DHT22;10245;51.344;6.620;2023-12-20T07:12:53;6.30;91.50
20171;DHT22;10245;51.344;6.620;2023-12-20T07:15:16;6.40;91.50
20171;DHT22;10245;51.344;6.620;2023-12-20T07:17:40;6.40;91.50
20171;DHT22;10245;51.344;6.620;2023-12-20T07:20:05;6.40;91.30
20171;DHT22;10245;51.344;6.620;2023-12-20T07:22:34;6.40;91.40
20171;DHT22;10245;51.344;6.620;2023-12-20T07:24:58;6.50;91.00
20171;DHT22;10245;51.344;6.620;2023-12-20T07:27:21;6.50;90.20
20171;DHT22;10245;51.344;6.620;2023-12-20T07:29:44;6.60;89.60
20171;DHT22;10245;51.344;6.620;2023-12-20T07:32:08;6.60;89.80
20171;DHT22;10245;51.344;6.620;2023-12-20T07:34:31;6.60;90.20
20171;DHT22;10245;51.344;6.620;2023-12-20T07:36:58;6.60;89.90
20171;DHT22;10245;51.344;6.620;2023-12-20T07:39:23;6.60;89.90
20171;DHT22;10245;51.344;6.620;2023-12-20T07:41:47;6.60;89.80
20171;DHT22;10245;51.344;6.620;2023-12-20T07:44:11;6.70;89.20
20171;DHT22;10245;51.344;6.620;2023-12-20T07:46:34;6.80;89.20
20171;DHT22;10245;51.344;6.620;2023-12-20T07:48:57;6.70;89.30
20171;DHT22;10245;51.344;6.620;2023-12-20T07:51:22;6.70;89.20
20171;DHT22;10245;51.344;6.620;2023-12-20T07:53:45;6.70;89.00
20171;DHT22;10245;51.344;6.620;2023-12-20T07:56:17;6.80;88.50
20171;DHT22;10245;51.344;6.620;2023-12-20T07:58:40;6.80;88.30
20171;DHT22;10245;51.344;6.620;2023-12-20T08:01:15;6.80;88.60
20171;DHT22;10245;51.344;6.620;2023-12-20T08:03:38;6.80;88.80
20171;DHT22;10245;51.344;6.620;2023-12-20T08:06:02;6.80;88.60
20171;DHT22;10245;51.344;6.620;2023-12-20T08:08:26;6.70;88.80
20171;DHT22;10245;51.344;6.620;2023-12-20T08:10:49;6.70;89.00
20171;DHT22;10245;51.344;6.620;2023-12-20T08:13:14;6.70;89.10
20171;DHT22;10245;51.344;6.620;2023-12-20T08:15:37;6.60;89.20
20171;DHT22;10245;51.344;6.620;2023-12-20T08:18:01;6.60;89.00
20171;DHT22;10245;51.344;6.620;2023-12-20T08:20:25;6.70;89.10
20171;DHT22;10245;51.344;6.620;2023-12-20T08:23:00;6.70;88.90
20171;DHT22;10245;51.344;6.620;2023-12-20T08:25:24;6.60;89.10
20171;DHT22;10245;51.344;6.620;2023-12-20T08:27:47;6.60;89.20
20171;DHT22;10245;51.344;6.620;2023-12-20T08:30:13;6.60;89.10
20171;DHT22;10245;51.344;6.620;2023-12-20T08:32:39;6.60;89.30
20171;DHT22;10245;51.344;6.620;2023-12-20T08:35:02;6.50;89.10
20171;DHT22;10245;51.344;6.620;2023-12-20T08:37:27;6.60;88.70
20171;DHT22;10245;51.344;6.620;2023-12-20T08:39:51;6.60;88.80
20171;DHT22;10245;51.344;6.620;2023-12-20T08:42:15;6.60;89.00
20171;DHT22;10245;51.344;6.620;2023-12-20T08:44:38;6.60;89.00
20171;DHT22;10245;51.344;6.620;2023-12-20T08:47:03;6.60;89.00
20171;DHT22;10245;51.344;6.620;2023-12-20T08:49:27;6.60;89.00
20171;DHT22;10245;51.344;6.620;2023-12-20T08:51:50;6.70;88.90
20171;DHT22;10245;51.344;6.620;2023-12-20T08:54:14;6.70;88.80
20171;DHT22;10245;51.344;6.620;2023-12-20T08:56:38;6.70;88.90
20171;DHT22;10245;51.344;6.620;2023-12-20T08:59:01;6.60;88.70
20171;DHT22;10245;51.344;6.620;2023-12-20T09:01:24;6.70;89.00
20171;DHT22;10245;51.344;6.620;2023-12-20T09:03:49;6.70;88.80
20171;DHT22;10245;51.344;6.620;2023-12-20T09:06:13;6.70;88.70
20171;DHT22;10245;51.344;6.620;2023-12-20T09:08:37;6.70;89.00
20171;DHT22;10245;51.344;6.620;2023-12-20T09:11:00;6.70;88.40
20171;DHT22;10245;51.344;6.620;2023-12-20T09:13:24;6.80;88.50
20171;DHT22;10245;51.344;6.620;2023-12-20T09:15:50;6.80;87.80
20171;DHT22;10245;51.344;6.620;2023-12-20T09:18:13;6.80;88.00
20171;DHT22;10245;51.344;6.620;2023-12-20T09:20:38;6.80;88.10
20171;DHT22;10245;51.344;6.620;2023-12-20T09:23:05;6.90;88.50
20171;DHT22;10245;51.344;6.620;2023-12-20T09:25:28;6.80;88.10
20171;DHT22;10245;51.344;6.620;2023-12-20T09:27:52;6.80;88.30
20171;DHT22;10245;51.344;6.620;2023-12-20T09:30:16;6.90;87.90
20171;DHT22;10245;51.344;6.620;2023-12-20T09:32:48;6.90;88.00
20171;DHT22;10245;51.344;6.620;2023-12-20T09:35:11;6.90;88.00
20171;DHT22;10245;51.344;6.620;2023-12-20T09:37:38;6.90;88.00
20171;DHT22;10245;51.344;6.620;2023-12-20T09:40:03;6.90;88.20
20171;DHT22;10245;51.344;6.620;2023-12-20T09:42:34;6.90;87.90
20171;DHT22;10245;51.344;6.620;2023-12-20T09:45:02;6.90;87.80
20171;DHT22;10245;51.344;6.620;2023-12-20T09:47:26;6.90;88.10
20171;DHT22;10245;51.344;6.620;2023-12-20T09:49:49;6.90;87.90
20171;DHT22;10245;51.344;6.620;2023-12-20T09:52:14;7.00;87.90
20171;DHT22;10245;51.344;6.620;2023-12-20T09:54:40;7.00;87.70
20171;DHT22;10245;51.344;6.620;2023-12-20T09:57:04;7.00;88.00
20171;DHT22;10245;51.344;6.620;2023-12-20T09:59:28;6.90;87.80
20171;DHT22;10245;51.344;6.620;2023-12-20T10:01:54;7.00;88.40
20171;DHT22;10245;51.344;6.620;2023-12-20T10:04:20;7.00;87.60
20171;DHT22;10245;51.344;6.620;2023-12-20T10:06:51;7.00;87.90
20171;DHT22;10245;51.344;6.620;2023-12-20T10:09:15;7.00;87.90
20171;DHT22;10245;51.344;6.620;2023-12-20T10:11:40;7.00;87.90
20171;DHT22;10245;51.344;6.620;2023-12-20T10:14:03;7.00;87.80
20171;DHT22;10245;51.344;6.620;2023-12-20T10:16:27;7.00;87.90
20171;DHT22;10245;51.344;6.620;2023-12-20T10:18:52;7.00;87.70
20171;DHT22;10245;51.344;6.620;2023-12-20T10:21:16;7.00;87.90
20171;DHT22;10245;51.344;6.620;2023-12-20T10:23:40;7.00;87.80
20171;DHT22;10245;51.344;6.620;2023-12-20T10:26:04;7.00;87.90
20171;DHT22;10245;51.344;6.620;2023-12-20T10:28:33;7.00;87.80
20171;DHT22;10245;51.344;6.620;2023-12-20T10:30:58;7.00;88.00
20171;DHT22;10245;51.344;6.620;2023-12-20T10:33:24;7.00;87.60
20171;DHT22;10245;51.344;6.620;2023-12-20T10:35:48;7.00;87.70
20171;DHT22;10245;51.344;6.620;2023-12-20T10:38:13;7.10;87.70
20171;DHT22;10245;51.344;6.620;2023-12-20T10:40:37;7.10;87.30
20171;DHT22;10245;51.344;6.620;2023-12-20T10:43:01;7.10;87.30
20171;DHT22;10245;51.344;6.620;2023-12-20T10:45:27;7.20;87.50
20171;DHT22;10245;51.344;6.620;2023-12-20T10:47:51;7.20;87.70
20171;DHT22;10245;51.344;6.620;2023-12-20T10:50:14;7.20;87.40
20171;DHT22;10245;51.344;6.620;2023-12-20T10:52:38;7.20;87.20
20171;DHT22;10245;51.344;6.620;2023-12-20T10:55:04;7.20;87.70
20171;DHT22;10245;51.344;6.620;2023-12-20T10:57:28;7.20;87.60
20171;DHT22;10245;51.344;6.620;2023-12-20T10:59:54;7.20;87.10
20171;DHT22;10245;51.344;6.620;2023-12-20T11:02:18;7.30;87.30
20171;DHT22;10245;51.344;6.620;2023-12-20T11:04:47;7.30;87.50
20171;DHT22;10245;51.344;6.620;2023-12-20T11:07:21;7.20;87.40
20171;DHT22;10245;51.344;6.620;2023-12-20T11:09:52;7.30;87.30
20171;DHT22;10245;51.344;6.620;2023-12-20T11:12:31;7.20;87.20
20171;DHT22;10245;51.344;6.620;2023-12-20T11:14:58;7.30;87.00
20171;DHT22;10245;51.344;6.620;2023-12-20T11:17:28;7.20;87.30
20171;DHT22;10245;51.344;6.620;2023-12-20T11:20:05;7.30;87.40
20171;DHT22;10245;51.344;6.620;2023-12-20T11:22:31;7.20;87.70
20171;DHT22;10245;51.344;6.620;2023-12-20T11:25:03;7.30;87.90
20171;DHT22;10245;51.344;6.620;2023-12-20T11:27:28;7.30;87.40
20171;DHT22;10245;51.344;6.620;2023-12-20T11:29:56;7.40;87.60
20171;DHT22;10245;51.344;6.620;2023-12-20T11:32:29;7.30;87.10
20171;DHT22;10245;51.344;6.620;2023-12-20T11:34:55;7.30;87.50
20171;DHT22;10245;51.344;6.620;2023-12-20T11:37:19;7.40;87.40
20171;DHT22;10245;51.344;6.620;2023-12-20T11:39:44;7.40;87.90
20171;DHT22;10245;51.344;6.620;2023-12-20T11:42:07;7.40;87.60
20171;DHT22;10245;51.344;6.620;2023-12-20T11:44:33;7.40;87.50
20171;DHT22;10245;51.344;6.620;2023-12-20T11:46:56;7.50;87.70
20171;DHT22;10245;51.344;6.620;2023-12-20T11:49:24;7.40;87.50
20171;DHT22;10245;51.344;6.620;2023-12-20T11:51:47;7.40;87.60
20171;DHT22;10245;51.344;6.620;2023-12-20T11:54:11;7.40;87.70
20171;DHT22;10245;51.344;6.620;2023-12-20T11:56:35;7.30;87.70
20171;DHT22;10245;51.344;6.620;2023-12-20T11:58:58;7.40;87.80
20171;DHT22;10245;51.344;6.620;2023-12-20T12:01:37;7.40;87.70
20171;DHT22;10245;51.344;6.620;2023-12-20T12:04:03;7.30;87.80
20171;DHT22;10245;51.344;6.620;2023-12-20T12:06:28;7.40;88.20
20171;DHT22;10245;51.344;6.620;2023-12-20T12:08:52;7.40;88.20
20171;DHT22;10245;51.344;6.620;2023-12-20T12:11:15;7.40;88.50
20171;DHT22;10245;51.344;6.620;2023-12-20T12:13:38;7.30;88.50
20171;DHT22;10245;51.344;6.620;2023-12-20T12:16:02;7.30;88.60
20171;DHT22;10245;51.344;6.620;2023-12-20T12:18:26;7.30;88.60
20171;DHT22;10245;51.344;6.620;2023-12-20T12:20:50;7.30;88.50
20171;DHT22;10245;51.344;6.620;2023-12-20T12:23:14;7.30;88.60
20171;DHT22;10245;51.344;6.620;2023-12-20T12:25:46;7.30;88.20
20171;DHT22;10245;51.344;6.620;2023-12-20T12:28:10;7.30;88.30
20171;DHT22;10245;51.344;6.620;2023-12-20T12:30:34;7.30;88.20
20171;DHT22;10245;51.344;6.620;2023-12-20T12:33:07;7.40;88.20
20171;DHT22;10245;51.344;6.620;2023-12-20T12:35:31;7.40;88.30
20171;DHT22;10245;51.344;6.620;2023-12-20T12:37:54;7.50;88.60
20171;DHT22;10245;51.344;6.620;2023-12-20T12:40:19;7.40;88.70
20171;DHT22;10245;51.344;6.620;2023-12-20T12:42:44;7.30;88.80
20171;DHT22;10245;51.344;6.620;2023-12-20T12:45:08;7.20;89.10
20171;DHT22;10245;51.344;6.620;2023-12-20T12:47:34;7.30;89.60
20171;DHT22;10245;51.344;6.620;2023-12-20T12:49:57;7.10;90.00
20171;DHT22;10245;51.344;6.620;2023-12-20T12:52:20;7.00;90.70
20171;DHT22;10245;51.344;6.620;2023-12-20T12:54:44;7.00;91.30
20171;DHT22;10245;51.344;6.620;2023-12-20T12:57:10;7.00;91.60
20171;DHT22;10245;51.344;6.620;2023-12-20T12:59:33;7.00;92.30
20171;DHT22;10245;51.344;6.620;2023-12-20T13:02:01;6.90;92.30
20171;DHT22;10245;51.344;6.620;2023-12-20T13:04:24;6.90;92.60
20171;DHT22;10245;51.344;6.620;2023-12-20T13:06:48;6.90;92.50
20171;DHT22;10245;51.344;6.620;2023-12-20T13:09:11;6.90;92.40
20171;DHT22;10245;51.344;6.620;2023-12-20T13:11:35;6.90;92.20
20171;DHT22;10245;51.344;6.620;2023-12-20T13:13:59;6.90;92.40
20171;DHT22;10245;51.344;6.620;2023-12-20T13:16:23;6.90;92.30
20171;DHT22;10245;51.344;6.620;2023-12-20T13:18:47;6.90;92.40
20171;DHT22;10245;51.344;6.620;2023-12-20T13:21:12;6.90;92.50
20171;DHT22;10245;51.344;6.620;2023-12-20T13:23:36;7.00;92.60
20171;DHT22;10245;51.344;6.620;2023-12-20T13:26:02;7.00;92.50
20171;DHT22;10245;51.344;6.620;2023-12-20T13:28:25;7.00;92.50
20171;DHT22;10245;51.344;6.620;2023-12-20T13:30:50;7.00;92.50
20171;DHT22;10245;51.344;6.620;2023-12-20T13:33:13;6.90;92.40
20171;DHT22;10245;51.344;6.620;2023-12-20T13:35:36;7.00;92.50
20171;DHT22;10245;51.344;6.620;2023-12-20T13:38:01;7.00;92.60
20171;DHT22;10245;51.344;6.620;2023-12-20T13:40:24;7.00;92.90
20171;DHT22;10245;51.344;6.620;2023-12-20T13:42:47;7.00;93.10
20171;DHT22;10245;51.344;6.620;2023-12-20T13:45:11;6.90;93.10
20171;DHT22;10245;51.344;6.620;2023-12-20T13:47:35;7.00;93.10
20171;DHT22;10245;51.344;6.620;2023-12-20T13:49:59;6.90;93.10
20171;DHT22;10245;51.344;6.620;2023-12-20T13:52:23;7.00;93.10
20171;DHT22;10245;51.344;6.620;2023-12-20T13:54:46;7.00;93.10
20171;DHT22;10245;51.344;6.620;2023-12-20T13:57:09;7.00;93.10
20171;DHT22;10245;51.344;6.620;2023-12-20T13:59:47;7.00;93.10
20171;DHT22;10245;51.344;6.620;2023-12-20T14:02:10;7.00;93.10
20171;DHT22;10245;51.344;6.620;2023-12-20T14:04:35;7.00;92.80
20171;DHT22;10245;51.344;6.620;2023-12-20T14:07:04;7.10;92.60
20171;DHT22;10245;51.344;6.620;2023-12-20T14:09:29;7.20;92.60
20171;DHT22;10245;51.344;6.620;2023-12-20T14:11:53;7.20;92.30
20171;DHT22;10245;51.344;6.620;2023-12-20T14:14:16;7.20;92.30
20171;DHT22;10245;51.344;6.620;2023-12-20T14:16:40;7.20;92.30
20171;DHT22;10245;51.344;6.620;2023-12-20T14:19:06;7.20;92.10
20171;DHT22;10245;51.344;6.620;2023-12-20T14:21:33;7.20;92.10
20171;DHT22;10245;51.344;6.620;2023-12-20T14:23:56;7.30;91.90
20171;DHT22;10245;51.344;6.620;2023-12-20T14:26:19;7.30;92.00
20171;DHT22;10245;51.344;6.620;2023-12-20T14:28:43;7.30;91.90
20171;DHT22;10245;51.344;6.620;2023-12-20T14:31:06;7.40;91.60
20171;DHT22;10245;51.344;6.620;2023-12-20T14:33:30;7.40;91.70
20171;DHT22;10245;51.344;6.620;2023-12-20T14:35:53;7.40;91.40
20171;DHT22;10245;51.344;6.620;2023-12-20T14:38:18;7.40;91.20
20171;DHT22;10245;51.344;6.620;2023-12-20T14:40:41;7.40;91.00
20171;DHT22;10245;51.344;6.620;2023-12-20T14:43:05;7.50;90.70
20171;DHT22;10245;51.344;6.620;2023-12-20T14:45:29;7.50;90.90
20171;DHT22;10245;51.344;6.620;2023-12-20T14:47:52;7.50;91.10
20171;DHT22;10245;51.344;6.620;2023-12-20T14:50:17;7.50;91.00
20171;DHT22;10245;51.344;6.620;2023-12-20T14:52:41;7.50;91.00
20171;DHT22;10245;51.344;6.620;2023-12-20T14:55:06;7.50;90.90
20171;DHT22;10245;51.344;6.620;2023-12-20T14:57:29;7.50;90.70
20171;DHT22;10245;51.344;6.620;2023-12-20T14:59:53;7.60;90.80
20171;DHT22;10245;51.344;6.620;2023-12-20T15:02:16;7.60;90.80
20171;DHT22;10245;51.344;6.620;2023-12-20T15:04:40;7.60;90.70
20171;DHT22;10245;51.344;6.620;2023-12-20T15:07:03;7.60;90.50
20171;DHT22;10245;51.344;6.620;2023-12-20T15:09:28;7.60;90.60
20171;DHT22;10245;51.344;6.620;2023-12-20T15:11:52;7.60;90.40
20171;DHT22;10245;51.344;6.620;2023-12-20T15:14:16;7.60;90.50
20171;DHT22;10245;51.344;6.620;2023-12-20T15:16:41;7.60;90.50
20171;DHT22;10245;51.344;6.620;2023-12-20T15:19:05;7.60;90.60
20171;DHT22;10245;51.344;6.620;2023-12-20T15:21:29;7.60;90.50
20171;DHT22;10245;51.344;6.620;2023-12-20T15:23:54;7.70;90.50
20171;DHT22;10245;51.344;6.620;2023-12-20T15:26:27;7.70;90.30
20171;DHT22;10245;51.344;6.620;2023-12-20T15:28:52;7.70;90.30